Time;durP1;ratioP1;P1;durP2;ratioP2;P2;SDS_P1;SDS_P2;PMS_P1;PMS_P2;Temp;Humidity;BMP_temperature;BMP_pressure;BME280_temperature;BME280_humidity;BME280_pressure;Samples;Min_cycle;Max_cycle;Signal;HPM_P1;HPM_P2
2021/05/07 00:02:05;;;;;;;5.18;1.27;;;;;;;9.06;57.37;100262.75;5032846;28;20463;-83
2021/05/07 00:04:30;;;;;;;4.38;1.60;;;;;;;9.02;57.72;100258.63;5032754;28;20121;-84
2021/05/07 00:06:56;;;;;;;6.18;1.70;;;;;;;8.95;57.94;100265.19;5032661;28;20048;-84
2021/05/07 00:09:22;;;;;;;7.05;1.77;;;;;;;8.84;58.04;100262.41;5032705;28;20105;-84
2021/05/07 00:11:47;;;;;;;5.80;1.67;;;;;;;8.77;58.77;100271.56;5032577;28;20026;-84
2021/05/07 00:14:12;;;;;;;4.88;1.20;;;;;;;8.71;58.82;100278.91;5032650;28;20030;-84
2021/05/07 00:16:38;;;;;;;4.80;1.45;;;;;;;8.73;58.25;100277.03;5032235;28;20040;-84
2021/05/07 00:19:06;;;;;;;6.85;1.77;;;;;;;8.68;58.46;100286.09;5032500;28;20064;-84
2021/05/07 00:21:32;;;;;;;8.63;2.30;;;;;;;8.56;59.27;100287.69;5032428;28;20482;-84
2021/05/07 00:23:58;;;;;;;6.63;1.63;;;;;;;8.51;59.68;100287.13;5032406;28;20398;-84
2021/05/07 00:26:23;;;;;;;5.22;1.30;;;;;;;8.41;60.14;100285.97;5032242;28;20030;-85
2021/05/07 00:28:48;;;;;;;3.53;1.50;;;;;;;8.33;59.90;100286.44;5032405;28;20030;-85
2021/05/07 00:31:16;;;;;;;4.18;1.65;;;;;;;8.21;60.25;100281.94;5032110;28;20479;-85
2021/05/07 00:33:42;;;;;;;8.15;2.20;;;;;;;8.20;60.19;100288.13;5032130;28;20120;-85
2021/05/07 00:36:07;;;;;;;5.25;2.10;;;;;;;8.03;60.09;100302.19;5032356;28;20112;-84
2021/05/07 00:38:33;;;;;;;3.38;1.35;;;;;;;7.99;60.61;100298.06;5032287;28;20460;-85
2021/05/07 00:40:58;;;;;;;5.80;1.63;;;;;;;7.96;60.94;100293.88;5032183;28;20360;-84
2021/05/07 00:43:24;;;;;;;3.75;1.60;;;;;;;7.92;60.90;100303.66;5032104;28;20395;-83
2021/05/07 00:45:51;;;;;;;5.47;1.77;;;;;;;7.66;60.80;100305.19;5031958;28;20032;-84
2021/05/07 00:48:17;;;;;;;4.25;1.30;;;;;;;7.38;61.16;100307.66;5031865;28;20030;-84
2021/05/07 00:50:44;;;;;;;3.60;1.98;;;;;;;7.40;60.91;100311.03;5032036;28;20391;-84
2021/05/07 00:53:10;;;;;;;4.20;1.50;;;;;;;6.99;61.87;100307.19;5032030;28;20040;-84
2021/05/07 00:55:36;;;;;;;5.78;1.60;;;;;;;6.95;62.20;100321.31;5032061;28;20026;-84
2021/05/07 00:58:02;;;;;;;5.05;2.08;;;;;;;7.01;62.69;100321.00;5031897;28;20041;-85
2021/05/07 01:00:31;;;;;;;5.68;1.45;;;;;;;7.11;62.60;100316.13;5031380;28;20033;-83
2021/05/07 01:02:57;;;;;;;7.45;1.83;;;;;;;7.12;62.93;100323.84;5031622;28;20037;-84
2021/05/07 01:05:23;;;;;;;4.72;1.60;;;;;;;7.04;62.50;100320.81;5013927;28;20037;-83
2021/05/07 01:07:49;;;;;;;5.45;1.65;;;;;;;6.83;63.20;100328.06;5014073;28;20030;-84
2021/05/07 01:10:15;;;;;;;7.00;2.00;;;;;;;6.91;63.12;100323.28;5031589;28;20032;-84
2021/05/07 01:12:41;;;;;;;6.38;1.83;;;;;;;6.74;64.89;100329.38;5031541;28;20052;-84
2021/05/07 01:15:12;;;;;;;5.85;1.45;;;;;;;6.93;64.25;100333.59;5031612;28;20025;-84
2021/05/07 01:17:43;;;;;;;5.63;1.77;;;;;;;6.83;64.96;100338.50;5031935;28;20393;-83
2021/05/07 01:20:12;;;;;;;5.70;1.60;;;;;;;6.76;65.01;100339.75;5031792;28;20033;-83
2021/05/07 01:22:43;;;;;;;6.68;2.45;;;;;;;6.80;65.43;100338.66;5013808;28;20140;-83
2021/05/07 01:25:09;;;;;;;7.18;1.90;;;;;;;6.79;66.22;100347.41;5031837;28;20022;-84
2021/05/07 01:27:39;;;;;;;7.07;1.90;;;;;;;6.85;66.14;100343.63;5030473;28;20112;-83
2021/05/07 01:30:14;;;;;;;7.05;1.75;;;;;;;6.93;66.31;100349.28;5031431;28;20029;-84
2021/05/07 01:32:40;;;;;;;7.18;2.15;;;;;;;6.95;66.44;100342.19;5031663;28;20026;-83
2021/05/07 01:35:10;;;;;;;5.00;1.70;;;;;;;6.95;66.56;100348.28;5031509;28;20076;-84
2021/05/07 01:37:36;;;;;;;6.70;2.20;;;;;;;6.98;66.81;100355.09;5031538;28;20112;-84
2021/05/07 01:40:10;;;;;;;4.30;1.88;;;;;;;6.94;65.84;100349.19;5031812;28;20115;-84
2021/05/07 01:42:35;;;;;;;6.13;1.98;;;;;;;6.65;66.55;100348.13;5035571;28;20098;-84
2021/05/07 01:45:03;;;;;;;5.63;2.10;;;;;;;6.69;67.24;100352.25;5035381;28;20535;-84
2021/05/07 01:47:28;;;;;;;9.50;2.13;;;;;;;6.85;66.33;100354.06;5035407;28;20033;-84
2021/05/07 01:49:54;;;;;;;6.93;2.17;;;;;;;6.76;67.13;100347.56;5035184;28;20494;-84
2021/05/07 01:52:19;;;;;;;6.05;2.38;;;;;;;6.74;67.05;100357.25;5034905;28;20482;-84
2021/05/07 01:54:44;;;;;;;5.05;1.73;;;;;;;6.71;67.29;100358.25;5035149;28;20021;-83
2021/05/07 01:57:10;;;;;;;8.15;2.40;;;;;;;6.75;67.66;100364.13;5034972;28;20025;-83
2021/05/07 01:59:35;;;;;;;10.35;1.92;;;;;;;6.85;68.31;100361.88;5034952;28;20029;-84
2021/05/07 02:02:00;;;;;;;6.32;2.22;;;;;;;6.88;68.40;100359.13;5034671;28;20035;-84
2021/05/07 02:04:26;;;;;;;6.50;2.10;;;;;;;6.95;68.47;100371.78;5034952;28;20105;-85
2021/05/07 02:06:51;;;;;;;7.13;1.63;;;;;;;7.04;68.46;100374.81;5035035;28;20483;-85
2021/05/07 02:09:16;;;;;;;3.53;1.75;;;;;;;7.08;67.75;100384.16;5035325;28;20025;-85
2021/05/07 02:11:42;;;;;;;5.45;1.52;;;;;;;7.06;67.36;100383.41;5034921;28;20033;-85
2021/05/07 02:14:07;;;;;;;4.32;1.60;;;;;;;7.00;67.29;100381.13;5034902;28;20378;-84
2021/05/07 02:16:32;;;;;;;11.90;2.00;;;;;;;6.76;67.87;100384.09;5035044;28;20026;-83
2021/05/07 02:18:58;;;;;;;7.10;2.30;;;;;;;6.73;69.06;100382.50;5035105;28;20033;-82
2021/05/07 02:21:23;;;;;;;7.35;2.08;;;;;;;6.63;69.72;100381.28;5034990;28;20030;-84
2021/05/07 02:23:48;;;;;;;6.28;2.22;;;;;;;6.79;69.41;100380.47;5035115;28;20087;-83
2021/05/07 02:26:14;;;;;;;4.78;1.75;;;;;;;6.86;68.96;100385.31;5035961;28;20116;-83
2021/05/07 02:28:40;;;;;;;8.32;3.05;;;;;;;7.00;68.32;100381.97;5035626;28;20487;-83
2021/05/07 02:31:05;;;;;;;4.50;1.67;;;;;;;6.95;68.15;100386.56;5036648;28;20033;-85
2021/05/07 02:33:31;;;;;;;3.55;1.35;;;;;;;6.92;68.64;100381.53;5035229;28;20054;-84
2021/05/07 02:35:56;;;;;;;7.05;1.45;;;;;;;6.63;67.66;100381.28;5034944;28;20026;-84
2021/05/07 02:38:21;;;;;;;7.47;1.55;;;;;;;6.71;68.24;100383.50;5035192;28;20036;-84
2021/05/07 02:40:47;;;;;;;5.35;2.08;;;;;;;6.75;68.88;100371.97;5035702;28;20022;-84
2021/05/07 02:43:12;;;;;;;5.72;1.60;;;;;;;6.84;68.99;100379.31;5035513;28;20422;-83
2021/05/07 02:45:37;;;;;;;6.38;1.80;;;;;;;6.86;69.48;100380.09;5035217;28;20489;-83
2021/05/07 02:48:03;;;;;;;5.47;2.03;;;;;;;6.92;68.74;100384.97;5034751;28;20025;-84
2021/05/07 02:50:29;;;;;;;5.63;1.98;;;;;;;6.93;69.37;100388.41;5035134;28;20398;-83
2021/05/07 02:52:54;;;;;;;3.47;1.40;;;;;;;6.98;69.24;100391.66;5033570;28;20028;-83
2021/05/07 02:55:19;;;;;;;5.05;1.33;;;;;;;6.99;69.65;100384.66;5035475;28;20025;-83
2021/05/07 02:57:45;;;;;;;4.57;1.65;;;;;;;7.02;68.32;100398.38;5035019;28;20510;-83
2021/05/07 03:00:10;;;;;;;4.10;1.77;;;;;;;7.02;69.03;100398.38;5034634;28;20029;-83
2021/05/07 03:02:36;;;;;;;4.50;1.33;;;;;;;6.80;70.78;100397.84;5034312;28;20091;-84
2021/05/07 03:05:05;;;;;;;3.63;1.38;;;;;;;7.01;69.64;100394.09;5034022;28;20105;-83
2021/05/07 03:07:31;;;;;;;5.28;2.00;;;;;;;6.98;69.73;100394.25;5034500;28;20033;-83
2021/05/07 03:09:56;;;;;;;7.75;1.70;;;;;;;6.94;69.32;100395.34;5034232;28;20048;-84
2021/05/07 03:12:22;;;;;;;5.50;1.60;;;;;;;6.98;69.50;100393.41;5034200;28;20029;-84
2021/05/07 03:14:47;;;;;;;4.88;1.67;;;;;;;7.02;69.67;100401.00;5034199;28;20026;-84
2021/05/07 03:17:12;;;;;;;7.32;1.70;;;;;;;6.75;69.94;100392.84;5034037;28;20083;-84
2021/05/07 03:19:38;;;;;;;6.28;1.67;;;;;;;6.73;70.74;100392.94;5034071;28;20068;-83
2021/05/07 03:22:03;;;;;;;7.18;2.38;;;;;;;6.73;71.82;100395.56;5033863;28;20026;-84
2021/05/07 03:24:28;;;;;;;9.82;1.73;;;;;;;6.73;72.20;100398.16;5033927;28;20383;-84
2021/05/07 03:26:54;;;;;;;5.70;1.88;;;;;;;6.79;72.36;100393.53;5034049;28;20036;-84
2021/05/07 03:29:19;;;;;;;8.07;1.63;;;;;;;7.06;71.17;100397.28;5033985;28;20017;-84
2021/05/07 03:31:44;;;;;;;6.90;1.55;;;;;;;7.11;70.48;100392.69;5033594;28;20105;-84
2021/05/07 03:34:10;;;;;;;5.90;1.80;;;;;;;7.19;70.55;100396.63;5033716;28;20116;-84
2021/05/07 03:36:35;;;;;;;6.38;1.45;;;;;;;7.11;71.15;100390.06;5033437;28;20033;-84
2021/05/07 03:39:00;;;;;;;4.30;1.55;;;;;;;7.18;70.16;100385.34;5033190;28;20030;-84
2021/05/07 03:41:26;;;;;;;5.70;1.73;;;;;;;7.22;70.42;100391.25;5033122;28;20043;-83
2021/05/07 03:43:51;;;;;;;7.57;1.92;;;;;;;7.24;70.37;100389.41;5033655;28;20392;-84
2021/05/07 03:46:17;;;;;;;5.85;1.70;;;;;;;7.22;70.12;100404.31;5033163;28;20040;-84
2021/05/07 03:48:42;;;;;;;4.65;1.58;;;;;;;7.12;69.65;100396.97;5033121;28;20025;-84
2021/05/07 03:51:07;;;;;;;4.88;1.77;;;;;;;7.09;69.37;100399.75;5032988;28;20120;-84
2021/05/07 03:53:33;;;;;;;3.88;1.85;;;;;;;7.12;69.44;100407.41;5033231;28;20041;-84
2021/05/07 03:55:58;;;;;;;5.72;1.77;;;;;;;7.01;69.85;100396.72;5033238;28;20037;-85
2021/05/07 03:58:24;;;;;;;8.73;1.95;;;;;;;7.02;70.79;100406.22;5033142;28;20072;-84
2021/05/07 04:00:49;;;;;;;9.27;1.77;;;;;;;7.00;70.60;100402.84;5032941;28;20478;-84
2021/05/07 04:03:14;;;;;;;9.10;2.00;;;;;;;6.86;71.05;100405.34;5032513;28;20033;-84
2021/05/07 04:05:41;;;;;;;4.88;2.10;;;;;;;6.87;71.18;100417.47;5032589;28;20032;-84
2021/05/07 04:10:39;;;;;;;4.40;1.67;;;;;;;6.74;71.09;100415.50;5033067;28;20045;-85
2021/05/07 04:15:30;;;;;;;5.43;1.90;;;;;;;6.62;70.84;100423.13;5032766;28;20459;-84
2021/05/07 04:17:56;;;;;;;4.68;1.73;;;;;;;6.69;70.72;100430.53;5032720;28;20475;-85
2021/05/07 04:20:21;;;;;;;4.72;1.70;;;;;;;6.55;70.15;100433.00;5032916;28;20033;-84
2021/05/07 04:22:46;;;;;;;3.97;1.60;;;;;;;6.53;70.36;100433.09;5032475;28;20467;-85
2021/05/07 04:25:12;;;;;;;3.30;1.40;;;;;;;6.46;70.53;100423.06;5032557;28;20057;-84
2021/05/07 04:27:38;;;;;;;6.75;1.95;;;;;;;6.31;70.63;100435.94;5032811;28;20018;-84
2021/05/07 04:30:05;;;;;;;7.95;1.85;;;;;;;6.29;70.82;100432.56;5032202;28;20029;-84
2021/05/07 04:32:31;;;;;;;3.10;1.50;;;;;;;6.11;71.91;100443.91;5032758;28;20060;-84
2021/05/07 04:34:56;;;;;;;3.35;1.83;;;;;;;6.19;72.24;100433.94;5032245;28;20057;-84
2021/05/07 04:37:21;;;;;;;6.32;1.48;;;;;;;6.33;71.43;100434.09;5032383;28;20084;-84
2021/05/07 04:39:47;;;;;;;6.07;1.50;;;;;;;6.23;70.72;100442.47;5032402;28;20017;-84
2021/05/07 04:42:12;;;;;;;4.65;1.60;;;;;;;6.26;70.49;100448.38;5032218;28;20076;-84
2021/05/07 04:44:38;;;;;;;4.00;1.75;;;;;;;6.37;70.16;100447.00;5032119;28;20040;-84
2021/05/07 04:47:04;;;;;;;7.07;2.00;;;;;;;6.39;69.55;100442.53;5031936;28;20118;-84
2021/05/07 04:49:29;;;;;;;4.57;1.50;;;;;;;6.43;69.83;100446.69;5031602;28;20061;-85
2021/05/07 04:51:54;;;;;;;8.07;1.73;;;;;;;6.44;69.96;100451.00;5032138;28;20029;-85
2021/05/07 04:54:20;;;;;;;3.97;1.60;;;;;;;6.51;70.55;100452.34;5032255;28;20025;-85
2021/05/07 04:56:46;;;;;;;5.13;1.33;;;;;;;6.43;70.64;100459.72;5031802;28;20018;-85
2021/05/07 04:59:11;;;;;;;5.93;1.92;;;;;;;6.40;70.78;100470.28;5031903;28;20031;-85
2021/05/07 05:01:37;;;;;;;3.80;1.52;;;;;;;6.39;70.70;100474.66;5031885;28;20474;-85
2021/05/07 05:04:02;;;;;;;6.25;1.38;;;;;;;6.38;70.06;100474.75;5031718;28;20032;-85
2021/05/07 05:06:27;;;;;;;6.78;2.13;;;;;;;6.22;70.08;100462.47;5032017;28;20452;-85
2021/05/07 05:08:53;;;;;;;5.07;2.03;;;;;;;6.06;70.68;100466.72;5029845;28;20108;-85
2021/05/07 05:11:19;;;;;;;3.80;1.60;;;;;;;6.12;71.16;100466.44;5031387;28;20390;-85
2021/05/07 05:13:44;;;;;;;14.63;3.70;;;;;;;5.98;71.73;100464.47;5007068;28;20037;-85
2021/05/07 05:16:09;;;;;;;3.80;1.58;;;;;;;6.14;71.88;100478.50;5030585;28;20104;-85
2021/05/07 05:18:38;;;;;;;4.60;1.65;;;;;;;6.28;71.90;100488.25;5031717;28;20480;-85
2021/05/07 05:21:06;;;;;;;7.90;1.50;;;;;;;6.30;71.26;100491.63;5031515;28;20044;-85
2021/05/07 05:23:33;;;;;;;2.65;1.40;;;;;;;6.40;70.99;100485.94;5026410;28;20026;-85
2021/05/07 05:25:59;;;;;;;3.72;2.22;;;;;;;6.44;70.28;100480.50;5011896;28;20021;-85
2021/05/07 05:28:26;;;;;;;2.85;1.42;;;;;;;6.53;70.45;100492.25;5007142;28;20459;-86
2021/05/07 05:30:52;;;;;;;8.02;3.83;;;;;;;6.61;70.08;100489.25;5031157;28;20057;-85
2021/05/07 05:33:18;;;;;;;3.88;1.73;;;;;;;6.66;70.57;100487.28;5012165;28;20044;-85
2021/05/07 05:35:47;;;;;;;5.95;1.75;;;;;;;6.70;70.56;100489.66;5030978;28;20472;-85
2021/05/07 05:38:13;;;;;;;4.93;1.60;;;;;;;6.75;70.54;100492.00;5031304;28;20026;-85
2021/05/07 05:40:40;;;;;;;5.35;1.63;;;;;;;6.70;71.48;100504.47;5031231;28;20091;-85
2021/05/07 05:43:05;;;;;;;6.50;2.47;;;;;;;6.59;71.99;100499.75;5030119;28;20108;-85
2021/05/07 05:45:31;;;;;;;2.08;1.40;;;;;;;6.63;71.89;100490.84;5030730;28;20112;-86
2021/05/07 05:48:01;;;;;;;3.83;1.75;;;;;;;6.73;72.23;100499.94;5031096;28;20049;-85
2021/05/07 05:50:26;;;;;;;2.78;1.60;;;;;;;6.83;71.29;100505.53;5029796;28;20034;-85
2021/05/07 05:52:52;;;;;;;5.03;1.75;;;;;;;6.87;71.91;100504.47;5031186;28;20021;-85
2021/05/07 05:55:18;;;;;;;4.55;2.25;;;;;;;6.95;71.43;100509.25;5022033;28;20026;-85
2021/05/07 05:57:43;;;;;;;2.97;1.77;;;;;;;6.98;71.38;100503.06;5003874;28;20025;-85
2021/05/07 06:00:09;;;;;;;5.82;1.75;;;;;;;7.03;71.64;100511.47;5030493;28;20033;-85
2021/05/07 06:02:34;;;;;;;5.40;1.90;;;;;;;6.96;71.98;100516.19;5012977;28;20029;-86
2021/05/07 06:05:00;;;;;;;3.45;2.10;;;;;;;6.98;72.43;100508.28;5013873;28;20018;-87
2021/05/07 06:07:25;;;;;;;2.95;1.55;;;;;;;7.13;72.60;100516.16;5011437;28;20507;-86
2021/05/07 06:09:50;;;;;;;6.40;1.88;;;;;;;7.24;72.57;100519.97;5011351;28;20029;-86
2021/05/07 06:12:15;;;;;;;3.40;1.77;;;;;;;7.36;72.24;100524.56;5011228;28;20026;-86
2021/05/07 06:14:41;;;;;;;3.55;1.70;;;;;;;7.43;72.46;100514.63;5028595;28;20006;-95
2021/05/07 06:17:08;;;;;;;5.35;1.65;;;;;;;7.75;71.32;100525.97;5015799;28;20136;-85
2021/05/07 06:19:33;;;;;;;3.03;1.67;;;;;;;7.91;71.49;100531.19;5030994;28;20029;-85
2021/05/07 06:21:59;;;;;;;6.45;1.42;;;;;;;8.06;71.32;100532.97;5030813;28;20038;-85
2021/05/07 06:24:24;;;;;;;3.90;1.40;;;;;;;8.20;70.94;100528.75;5017683;28;20080;-85
2021/05/07 06:26:49;;;;;;;4.03;2.28;;;;;;;8.44;70.61;100539.63;5022068;28;20029;-85
2021/05/07 06:29:15;;;;;;;3.67;1.70;;;;;;;9.45;69.42;100538.06;5028583;28;20030;-85
2021/05/07 06:31:40;;;;;;;4.05;1.65;;;;;;;10.77;65.85;100534.06;5030088;28;20026;-89
2021/05/07 06:34:05;;;;;;;4.93;1.65;;;;;;;11.91;63.98;100537.63;5034345;28;20100;-95
2021/05/07 06:36:31;;;;;;;5.43;2.50;;;;;;;12.97;59.54;100548.25;5034042;28;20041;-89
2021/05/07 06:38:56;;;;;;;4.55;1.52;;;;;;;13.93;52.41;100533.81;5034223;28;20032;-88
2021/05/07 06:41:22;;;;;;;6.75;1.50;;;;;;;14.95;49.42;100538.75;5033875;28;20168;-93
2021/05/07 06:43:48;;;;;;;6.85;2.33;;;;;;;15.86;45.13;100540.59;5026454;28;20113;-88
2021/05/07 06:46:14;;;;;;;7.40;1.65;;;;;;;16.45;43.78;100543.34;5032312;28;20025;-88
2021/05/07 06:48:42;;;;;;;6.18;1.70;;;;;;;17.28;41.08;100546.34;5032173;28;20082;-89
2021/05/07 06:51:07;;;;;;;6.55;1.75;;;;;;;18.19;39.23;100548.31;5031930;28;20036;-89
2021/05/07 06:53:32;;;;;;;4.13;1.70;;;;;;;19.07;37.41;100544.94;5032823;28;20025;-89
2021/05/07 06:55:58;;;;;;;4.35;1.02;;;;;;;19.73;35.51;100548.81;5033160;28;20363;-90
2021/05/07 06:58:23;;;;;;;4.82;1.10;;;;;;;20.23;34.87;100541.81;5032899;28;20112;-90
2021/05/07 07:00:49;;;;;;;4.20;1.40;;;;;;;20.60;34.57;100547.53;5032587;28;20043;-90
2021/05/07 07:03:14;;;;;;;4.70;1.20;;;;;;;20.94;33.44;100549.19;5032749;28;20036;-89
2021/05/07 07:05:39;;;;;;;5.65;1.38;;;;;;;20.91;33.19;100554.88;5032879;28;20017;-90
2021/05/07 07:08:05;;;;;;;5.72;1.38;;;;;;;21.93;31.83;100559.63;5033564;28;20021;-90
2021/05/07 07:10:30;;;;;;;6.43;1.67;;;;;;;22.51;30.85;100557.44;5036787;28;20037;-91
2021/05/07 07:12:55;;;;;;;4.60;1.50;;;;;;;22.76;30.49;100550.06;5032887;28;20386;-91
2021/05/07 07:15:21;;;;;;;5.57;1.55;;;;;;;23.02;30.42;100552.34;5027625;28;20149;-89
2021/05/07 07:17:46;;;;;;;5.35;1.63;;;;;;;23.41;29.23;100550.47;5036518;28;20022;-91
2021/05/07 07:20:12;;;;;;;6.82;1.25;;;;;;;23.34;29.67;100550.34;5031272;28;20535;-91
2021/05/07 07:22:37;;;;;;;4.43;1.27;;;;;;;23.74;28.64;100553.59;5034419;28;20021;-93
2021/05/07 07:25:04;;;;;;;4.07;1.63;;;;;;;24.05;28.23;100550.69;5030963;28;20052;-94
2021/05/07 07:27:29;;;;;;;9.05;1.80;;;;;;;23.40;28.86;100557.69;5033420;28;20022;-93
2021/05/07 07:29:54;;;;;;;7.35;1.60;;;;;;;23.70;28.91;100558.50;5033332;28;20384;-92
2021/05/07 07:32:20;;;;;;;9.25;1.88;;;;;;;24.20;28.99;100558.69;5033126;28;20109;-95
2021/05/07 07:34:46;;;;;;;7.28;1.55;;;;;;;24.24;28.21;100564.50;5032796;28;20033;-94
2021/05/07 07:37:11;;;;;;;10.02;2.28;;;;;;;23.92;29.06;100567.47;5032879;28;20498;-95
2021/05/07 07:39:38;;;;;;;5.40;2.00;;;;;;;24.58;27.92;100566.53;5031669;28;20040;-95
2021/05/07 07:42:04;;;;;;;6.30;2.03;;;;;;;25.09;28.04;100566.34;5033129;28;20100;-94
2021/05/07 07:44:29;;;;;;;8.50;1.85;;;;;;;24.70;27.74;100569.53;5032710;28;20026;-95
2021/05/07 07:46:55;;;;;;;6.40;2.08;;;;;;;24.38;28.40;100578.91;5032392;28;20025;-96
2021/05/07 07:49:20;;;;;;;12.82;2.13;;;;;;;24.53;28.21;100575.16;5030699;28;20066;-96
2021/05/07 07:51:45;;;;;;;3.83;1.52;;;;;;;24.79;28.64;100579.13;5029541;28;20030;-94
2021/05/07 07:54:12;;;;;;;19.77;3.05;;;;;;;25.01;27.48;100587.16;5021624;28;20108;-96
2021/05/07 07:56:38;;;;;;;7.55;2.55;;;;;;;25.71;27.87;100588.88;5032068;28;20030;-94
2021/05/07 07:59:04;;;;;;;9.93;2.90;;;;;;;26.08;27.11;100592.16;5018779;28;20037;-94
2021/05/07 08:01:29;;;;;;;8.13;2.50;;;;;;;26.29;26.02;100595.75;5031199;28;20025;-95
2021/05/07 08:03:55;;;;;;;10.98;2.85;;;;;;;25.02;27.93;100596.84;5034326;28;20024;-95
2021/05/07 08:06:21;;;;;;;9.50;2.47;;;;;;;24.25;28.60;100606.41;5030731;28;20207;-95
2021/05/07 08:08:48;;;;;;;4.93;2.03;;;;;;;25.09;28.79;100601.25;5016701;28;20029;-94
2021/05/07 08:11:13;;;;;;;6.10;2.20;;;;;;;26.81;25.89;100593.38;5034354;28;20026;-94
2021/05/07 08:13:38;;;;;;;7.50;2.17;;;;;;;25.20;28.35;100599.91;5034068;28;20041;-95
2021/05/07 08:16:04;;;;;;;8.65;2.83;;;;;;;25.55;28.46;100593.75;5034304;28;20029;-94
2021/05/07 08:18:29;;;;;;;9.13;2.47;;;;;;;26.54;26.84;100603.25;5029611;28;20152;-94
2021/05/07 08:20:55;;;;;;;7.20;2.15;;;;;;;26.87;26.62;100597.91;5028553;28;20060;-94
2021/05/07 08:23:20;;;;;;;5.70;2.00;;;;;;;27.02;26.55;100597.72;5032573;28;20279;-96
2021/05/07 08:25:45;;;;;;;4.90;1.83;;;;;;;25.92;27.15;100608.66;5022343;28;20025;-96
2021/05/07 08:28:11;;;;;;;4.68;1.75;;;;;;;24.37;29.51;100598.69;5032491;28;20099;-96
2021/05/07 08:30:36;;;;;;;8.60;2.67;;;;;;;23.17;30.61;100608.63;5015312;28;20037;-94
2021/05/07 08:33:02;;;;;;;5.57;1.88;;;;;;;22.43;31.63;100601.13;5034020;28;20027;-95
2021/05/07 08:35:27;;;;;;;7.15;2.63;;;;;;;22.90;31.39;100599.31;5023771;28;20029;-95
2021/05/07 08:37:52;;;;;;;7.88;2.17;;;;;;;24.33;29.96;100590.22;5032366;28;20028;-94
2021/05/07 08:40:18;;;;;;;4.65;2.17;;;;;;;25.25;28.93;100592.09;5033281;28;20032;-92
2021/05/07 08:42:45;;;;;;;5.13;2.17;;;;;;;25.58;27.91;100590.66;5033951;28;20391;-93
2021/05/07 08:45:12;;;;;;;6.65;2.08;;;;;;;25.97;26.64;100586.50;5029911;28;20037;-94
2021/05/07 08:47:38;;;;;;;9.95;2.03;;;;;;;26.59;26.06;100590.03;5031199;28;20509;-94
2021/05/07 08:50:07;;;;;;;16.02;2.47;;;;;;;25.58;27.34;100593.34;5032848;28;20137;-94
2021/05/07 08:52:34;;;;;;;7.13;2.17;;;;;;;26.91;25.44;100588.38;5033463;28;20113;-93
2021/05/07 08:54:59;;;;;;;9.85;1.65;;;;;;;27.52;24.11;100589.19;5033385;28;20026;-95
2021/05/07 08:57:25;;;;;;;10.30;2.45;;;;;;;27.30;23.82;100592.94;5026649;28;20079;-96
2021/05/07 08:59:50;;;;;;;5.32;1.40;;;;;;;26.92;24.04;100603.53;5033438;28;20109;-95
2021/05/07 09:02:32;;;;;;;6.93;1.60;;;;;;;25.71;25.44;100599.63;5031411;28;20380;-95
2021/05/07 09:04:58;;;;;;;;;;;;;;;25.90;26.66;100599.91;5032182;28;20079;-94
2021/05/07 09:07:25;;;;;;;7.40;2.22;;;;;;;25.85;26.61;100605.06;5034238;28;19955;-94
2021/05/07 09:09:57;;;;;;;5.00;1.55;;;;;;;25.25;27.42;100604.72;5021118;28;20025;-94
2021/05/07 09:12:38;;;;;;;6.45;1.63;;;;;;;24.77;28.08;100608.03;5033401;28;20072;-95
2021/05/07 09:15:12;;;;;;;7.18;1.60;;;;;;;24.30;28.10;100602.13;5016601;28;20068;-95
2021/05/07 09:17:39;;;;;;;6.15;1.45;;;;;;;22.76;29.70;100607.09;5014551;28;20392;-96
2021/05/07 09:20:12;;;;;;;8.80;2.42;;;;;;;22.37;30.10;100613.41;5022627;28;20091;-95
2021/05/07 09:22:39;;;;;;;4.68;1.52;;;;;;;21.72;31.58;100611.84;5021749;28;20479;-95
2021/05/07 09:25:14;;;;;;;2.88;1.40;;;;;;;21.53;33.33;100606.88;5031008;28;20048;-94
2021/05/07 09:27:40;;;;;;;5.40;1.95;;;;;;;21.20;33.07;100607.72;5018516;28;20026;-93
2021/05/07 09:30:30;;;;;;;12.80;1.85;;;;;;;23.68;30.80;100614.13;5027263;28;20045;-95
2021/05/07 09:32:56;;;;;;;8.13;1.63;;;;;;;24.20;26.60;100601.63;5028184;28;20064;-96
2021/05/07 09:35:27;;;;;;;4.40;1.38;;;;;;;23.48;27.21;100596.94;5014877;28;20030;-96
2021/05/07 09:38:20;;;;;;;6.70;2.15;;;;;;;22.62;28.85;100601.69;5024326;28;20022;-95
2021/05/07 09:40:45;;;;;;;4.90;1.40;;;;;;;22.10;30.20;100609.34;5025075;28;20030;-95
2021/05/07 09:43:17;;;;;;;5.68;2.28;;;;;;;21.18;31.36;100603.56;5031820;28;20087;-96
2021/05/07 09:45:46;;;;;;;3.55;1.33;;;;;;;20.65;33.10;100607.56;5018572;28;20034;-95
2021/05/07 09:48:23;;;;;;;5.00;1.17;;;;;;;20.47;34.13;100603.16;5030115;28;20037;-94
2021/05/07 09:50:54;;;;;;;6.22;1.55;;;;;;;20.10;33.59;100608.91;5029838;28;20025;-96
2021/05/07 09:53:21;;;;;;;7.18;1.27;;;;;;;19.10;34.94;100606.66;5021794;28;20096;-95
2021/05/07 09:55:49;;;;;;;5.47;1.15;;;;;;;19.06;35.46;100615.13;5027472;28;20038;-95
2021/05/07 09:58:14;;;;;;;7.53;1.40;;;;;;;18.77;34.44;100613.50;5016623;28;20036;-95
2021/05/07 10:00:40;;;;;;;4.03;1.67;;;;;;;18.85;35.17;100618.94;5030743;28;20025;-94
2021/05/07 10:03:07;;;;;;;8.13;1.70;;;;;;;18.50;35.69;100617.91;5010028;28;20058;-94
2021/05/07 10:05:34;;;;;;;4.25;1.58;;;;;;;18.81;34.35;100618.41;5030202;28;20026;-94
2021/05/07 10:08:00;;;;;;;5.53;1.77;;;;;;;18.81;34.95;100622.88;5028518;28;20026;-94
2021/05/07 10:10:34;;;;;;;5.72;1.55;;;;;;;18.22;35.16;100620.59;5026203;28;20505;-95
2021/05/07 10:13:01;;;;;;;6.03;1.45;;;;;;;17.82;35.27;100615.59;5021065;28;20038;-94
2021/05/07 10:15:36;;;;;;;8.43;1.30;;;;;;;18.44;34.50;100626.47;5003072;28;20032;-94
2021/05/07 10:18:03;;;;;;;5.60;1.33;;;;;;;18.52;35.79;100626.59;5035793;28;20048;-94
2021/05/07 10:20:31;;;;;;;4.88;1.10;;;;;;;18.71;35.16;100636.22;5027872;28;20032;-95
2021/05/07 10:22:57;;;;;;;8.07;1.40;;;;;;;18.68;35.97;100635.69;5028278;28;20105;-95
2021/05/07 10:25:24;;;;;;;6.93;1.90;;;;;;;18.41;35.50;100632.09;5014640;28;20112;-95
2021/05/07 10:27:52;;;;;;;4.55;1.38;;;;;;;18.61;35.21;100638.97;5036515;28;20071;-95
2021/05/07 10:30:27;;;;;;;4.90;1.60;;;;;;;18.21;36.08;100640.19;5031238;28;20588;-95
2021/05/07 10:33:00;;;;;;;6.18;1.50;;;;;;;17.98;36.86;100642.41;5031884;28;20060;-94
2021/05/07 10:35:37;;;;;;;3.47;1.35;;;;;;;19.27;33.90;100636.06;5030404;28;20026;-94
2021/05/07 10:38:11;;;;;;;8.00;1.23;;;;;;;21.37;30.30;100640.59;5026570;28;20017;-94
2021/05/07 10:40:36;;;;;;;3.65;1.27;;;;;;;21.54;29.28;100635.25;5035801;28;20030;-95
2021/05/07 10:43:02;;;;;;;5.40;1.52;;;;;;;23.20;28.66;100637.72;5037134;28;20159;-95
2021/05/07 10:45:48;;;;;;;5.78;1.30;;;;;;;23.46;27.79;100628.44;5035733;28;20079;-95
2021/05/07 10:48:26;;;;;;;5.43;1.55;;;;;;;24.92;25.79;100629.41;5025820;28;20048;-95
2021/05/07 10:50:56;;;;;;;4.10;1.20;;;;;;;25.90;24.81;100621.44;5027907;28;20425;-95
2021/05/07 10:53:27;;;;;;;2.60;0.90;;;;;;;24.19;24.43;100634.00;5034525;28;20448;-95
2021/05/07 10:55:53;;;;;;;4.07;1.42;;;;;;;22.16;26.62;100632.69;5024807;28;20506;-95
2021/05/07 10:58:38;;;;;;;3.72;1.00;;;;;;;21.68;26.35;100642.59;5017610;28;20030;-95
2021/05/07 11:01:22;;;;;;;3.28;0.88;;;;;;;20.55;27.19;100634.34;5024409;28;20061;-92
2021/05/07 11:04:13;;;;;;;4.57;0.85;;;;;;;19.96;27.70;100634.34;5035494;28;20029;-91
2021/05/07 11:06:47;;;;;;;4.28;0.85;;;;;;;19.55;28.82;100642.06;5030098;28;20056;-93
2021/05/07 11:09:21;;;;;;;4.70;0.93;;;;;;;21.38;28.58;100641.41;5016105;28;20033;-93
2021/05/07 11:11:49;;;;;;;3.90;1.00;;;;;;;22.18;26.58;100643.22;5014293;28;20053;-94
2021/05/07 11:14:20;;;;;;;3.53;0.85;;;;;;;20.94;26.43;100639.94;5014426;28;20029;-95
2021/05/07 11:16:47;;;;;;;4.97;1.00;;;;;;;21.79;26.46;100641.38;5029955;28;20053;-93
2021/05/07 11:19:27;;;;;;;2.63;1.02;;;;;;;22.08;25.68;100643.44;5033301;28;20625;-95
2021/05/07 11:21:53;;;;;;;5.22;1.08;;;;;;;22.01;24.32;100650.47;5030532;28;20557;-95
2021/05/07 11:24:22;;;;;;;5.20;0.90;;;;;;;22.52;24.16;100640.22;4998491;28;20116;-95
2021/05/07 11:26:47;;;;;;;2.10;0.90;;;;;;;23.87;23.01;100634.22;5023533;28;20026;-93
2021/05/07 11:29:12;;;;;;;3.17;0.88;;;;;;;22.84;24.85;100638.31;5004907;28;20025;-94
2021/05/07 11:31:38;;;;;;;2.85;1.13;;;;;;;22.01;26.32;100637.09;5005930;28;20044;-94
2021/05/07 11:34:03;;;;;;;4.32;1.30;;;;;;;23.41;23.67;100637.03;5019529;28;20105;-94